Time,TemperatureF,DewpointF,PressureIn,WindDirection,WindDirectionDegrees,WindSpeedMPH,WindSpeedGustMPH,Humidity,HourlyPrecipIn,Conditions,Clouds,dailyrainin,SoftwareType,DateUTC
2013-08-17 00:03:00,64.6,20.1,30.12,North,10,0.0,0.0,18,0.00,CLR,CLR,0.00,WeatherDisplay:10.37,2013-08-17 04:03:00,
2013-08-17 00:18:00,64.6,20.1,30.12,North,0,0.0,0.0,18,0.00,CLR,CLR,0.00,WeatherDisplay:10.37,2013-08-17 04:18:00,
2013-08-17 00:33:00,64.8,20.2,30.09,NE,40,0.0,0.0,18,0.00,CLR,CLR,0.00,WeatherDisplay:10.37,2013-08-17 04:33:00,
2013-08-17 00:48:00,64.9,20.4,30.12,North,8,0.0,0.0,18,0.00,CLR,CLR,0.00,WeatherDisplay:10.37,2013-08-17 04:48:00,
2013-08-17 01:03:00,64.8,22.7,30.12,ENE,78,0.0,0.0,20,0.00,CLR,CLR,0.00,WeatherDisplay:10.37,2013-08-17 05:03:00,
2013-08-17 01:18:00,64.6,22.6,30.12,West,270,0.0,0.0,20,0.00,CLR,CLR,0.00,WeatherDisplay:10.37,2013-08-17 05:18:00,
2013-08-17 01:33:00,64.6,22.6,30.12,WNW,301,0.0,0.0,20,0.00,CLR,CLR,0.00,WeatherDisplay:10.37,2013-08-17 05:33:00,
2013-08-17 01:48:00,64.8,22.7,30.12,WNW,284,0.0,0.0,20,0.00,CLR,CLR,0.00,WeatherDisplay:10.37,2013-08-17 05:48:00,
2013-08-17 02:03:00,64.6,22.6,30.12,West,260,0.0,0.0,20,0.00,CLR,CLR,0.00,WeatherDisplay:10.37,2013-08-17 06:03:00,
2013-08-17 02:18:00,64.4,25.8,30.15,SW,234,0.0,0.0,23,0.00,CLR,CLR,0.00,WeatherDisplay:10.37,2013-08-17 06:18:00,
2013-08-17 02:33:00,64.2,26.6,30.15,WSW,245,3.0,4.0,24,0.00,CLR,CLR,0.00,WeatherDisplay:10.37,2013-08-17 06:33:00,
2013-08-17 02:48:00,64.6,26.9,30.15,SE,126,1.0,3.0,24,0.00,CLR,CLR,0.00,WeatherDisplay:10.37,2013-08-17 06:48:00,
2013-08-17 02:49:00,65.4,58.7,30.15,WSW,247,0.0,2.0,79,0.00,OVC,OVC,0.00,WeatherDisplay:10.37,2013-08-17 06:49:00,
2013-08-17 02:50:00,65.4,58.7,30.15,WSW,247,0.0,0.0,79,0.00,OVC,OVC,0.00,WeatherDisplay:10.37,2013-08-17 06:50:00,
2013-08-17 02:51:00,65.4,58.7,30.15,WSW,247,0.0,0.0,79,0.00,OVC,OVC,0.00,WeatherDisplay:10.37,2013-08-17 06:51:00,
2013-08-17 02:52:00,65.4,58.7,30.15,WSW,247,0.0,0.0,79,0.00,OVC,OVC,0.00,WeatherDisplay:10.37,2013-08-17 06:52:00,
2013-08-17 02:53:00,65.4,58.7,30.15,WSW,247,0.0,0.0,79,0.00,OVC,OVC,0.00,WeatherDisplay:10.37,2013-08-17 06:53:00,
2013-08-17 02:54:00,65.4,58.7,30.15,WSW,247,0.0,0.0,79,0.00,OVC,OVC,0.00,WeatherDisplay:10.37,2013-08-17 06:54:00,
2013-08-17 02:55:00,65.4,58.7,30.15,WSW,247,0.0,0.0,79,0.00,OVC,OVC,0.00,WeatherDisplay:10.37,2013-08-17 06:55:00,
2013-08-17 02:56:00,65.4,58.7,30.15,WSW,247,0.0,0.0,79,0.00,OVC,OVC,0.00,WeatherDisplay:10.37,2013-08-17 06:56:00,
2013-08-17 02:57:00,65.4,58.7,30.15,WSW,247,0.0,0.0,79,0.00,OVC,OVC,0.00,WeatherDisplay:10.37,2013-08-17 06:57:00,
2013-08-17 02:58:00,65.4,58.7,30.15,WSW,247,0.0,0.0,79,0.00,OVC,OVC,0.00,WeatherDisplay:10.37,2013-08-17 06:58:00,
2013-08-17 02:59:00,65.4,58.7,30.15,WSW,247,0.0,0.0,79,0.00,OVC,OVC,0.00,WeatherDisplay:10.37,2013-08-17 06:59:00,
2013-08-17 03:00:00,65.4,58.7,30.15,WSW,247,0.0,0.0,79,0.00,OVC,OVC,0.00,WeatherDisplay:10.37,2013-08-17 07:00:00,
2013-08-17 03:01:00,65.4,58.7,30.15,WSW,247,0.0,0.0,79,0.00,OVC,OVC,0.00,WeatherDisplay:10.37,2013-08-17 07:01:00,
2013-08-17 03:02:00,65.4,58.7,30.15,WSW,247,0.0,0.0,79,0.00,OVC,OVC,0.00,WeatherDisplay:10.37,2013-08-17 07:02:00,
2013-08-17 03:03:00,65.4,58.7,30.15,WSW,247,0.0,0.0,79,0.00,OVC,OVC,0.00,WeatherDisplay:10.37,2013-08-17 07:03:00,
2013-08-17 07:59:00,64.8,58.1,30.15,West,270,4.0,4.0,79,0.00,CLR,,0.00,WeatherDisplay:10.37,2013-08-17 11:59:00,
2013-08-17 08:00:00,65.1,58.4,30.15,WSW,248,1.2,1.2,79,0.00,OVC,,0.00,WeatherDisplay:10.37,2013-08-17 12:00:00,
2013-08-17 08:05:00,65.7,58.6,30.15,North,0,1.2,0.0,78,0.00,OVC,,0.00,WeatherDisplay:10.37,2013-08-17 12:05:00,
2013-08-17 08:08:00,65.8,58.8,30.15,NW,315,1.2,1.2,78,0.00,OVC,,0.00,WeatherDisplay:10.37,2013-08-17 12:08:00,
2013-08-17 08:13:00,66.2,59.1,30.15,West,270,1.6,1.6,78,0.00,OVC,,0.00,WeatherDisplay:10.37,2013-08-17 12:13:00,
2013-08-17 08:18:00,66.4,58.9,30.15,North,0,2.9,2.9,77,0.00,OVC,,0.00,WeatherDisplay:10.37,2013-08-17 12:18:00,
2013-08-17 08:23:00,66.6,58.4,30.15,North,0,2.3,2.3,75,0.00,OVC,,0.00,WeatherDisplay:10.37,2013-08-17 12:23:00,
2013-08-17 08:29:00,67.1,59.6,30.15,NW,315,0.0,0.0,77,0.00,OVC,,0.00,WeatherDisplay:10.37,2013-08-17 12:29:00,
2013-08-17 08:34:00,67.5,60.0,30.15,North,0,1.2,0.0,77,0.00,OVC,,0.00,WeatherDisplay:10.37,2013-08-17 12:34:00,
2013-08-17 08:39:00,67.8,59.6,30.15,NE,45,2.2,0.0,75,0.00,OVC,,0.00,WeatherDisplay:10.37,2013-08-17 12:39:00,
2013-08-17 08:44:00,67.6,59.4,30.15,North,0,3.5,3.5,75,0.00,OVC,,0.00,WeatherDisplay:10.37,2013-08-17 12:44:00,
2013-08-17 08:49:00,67.5,58.1,30.15,West,270,2.3,2.3,72,0.00,OVC,,0.00,WeatherDisplay:10.37,2013-08-17 12:49:00,
2013-08-17 08:54:00,67.3,59.1,30.15,NNW,338,1.2,1.2,75,0.00,OVC,,0.00,WeatherDisplay:10.37,2013-08-17 12:54:00,
2013-08-17 08:59:00,67.5,59.3,30.15,North,0,1.2,0.0,75,0.00,OVC,,0.00,WeatherDisplay:10.37,2013-08-17 12:59:00,
2013-08-17 09:04:00,67.5,59.3,30.15,NE,45,1.2,0.0,75,0.00,OVC,,0.00,WeatherDisplay:10.37,2013-08-17 13:04:00,
2013-08-17 09:09:00,67.5,59.3,30.15,NE,45,1.4,0.0,75,0.00,OVC,,0.00,WeatherDisplay:10.37,2013-08-17 13:09:00,
2013-08-17 09:14:00,67.5,59.3,30.15,NNW,338,1.2,0.0,75,0.00,OVC,,0.00,WeatherDisplay:10.37,2013-08-17 13:14:00,
2013-08-17 09:20:00,67.5,59.3,30.18,NW,315,1.2,1.2,75,0.00,OVC,,0.00,WeatherDisplay:10.37,2013-08-17 13:20:00,
2013-08-17 09:25:00,67.6,59.4,30.18,NNW,338,1.2,0.0,75,0.00,OVC,,0.00,WeatherDisplay:10.37,2013-08-17 13:25:00,
2013-08-17 09:30:00,67.6,59.4,30.18,NNE,22,2.9,2.9,75,0.00,OVC,,0.00,WeatherDisplay:10.37,2013-08-17 13:30:00,
2013-08-17 09:35:00,67.6,59.4,30.15,SE,135,1.6,0.0,75,0.00,SCT,,0.00,WeatherDisplay:10.37,2013-08-17 13:35:00,
2013-08-17 09:40:00,67.6,59.4,30.15,NNW,338,2.4,0.0,75,0.00,SCT,,0.00,WeatherDisplay:10.37,2013-08-17 13:40:00,
2013-08-17 09:45:00,67.8,59.6,30.15,North,0,1.2,1.2,75,0.00,SCT,,0.00,WeatherDisplay:10.37,2013-08-17 13:45:00,
2013-08-17 09:50:00,67.6,59.4,30.15,West,270,3.5,3.5,75,0.00,SCT,,0.00,WeatherDisplay:10.37,2013-08-17 13:50:00,
2013-08-17 09:55:00,67.8,59.6,30.15,North,0,3.3,0.0,75,0.00,SCT,,0.00,WeatherDisplay:10.37,2013-08-17 13:55:00,
2013-08-17 10:00:00,68.2,60.0,30.15,NNW,338,0.0,1.4,75,0.00,SCT,,0.00,WeatherDisplay:10.37,2013-08-17 14:00:00,
2013-08-17 10:05:00,68.2,58.8,30.15,North,0,2.3,2.3,72,0.00,SCT,,0.00,WeatherDisplay:10.37,2013-08-17 14:05:00,
2013-08-17 10:10:00,68.4,59.0,30.15,NW,315,2.3,2.6,72,0.00,SCT,,0.00,WeatherDisplay:10.37,2013-08-17 14:10:00,
2013-08-17 10:15:00,68.9,59.5,30.15,NW,315,1.6,1.6,72,0.00,SCT,,0.00,WeatherDisplay:10.37,2013-08-17 14:15:00,
2013-08-17 10:20:00,69.1,59.7,30.18,NE,45,2.4,0.0,72,0.00,BKN,,0.00,WeatherDisplay:10.37,2013-08-17 14:20:00,
2013-08-17 10:25:00,69.1,59.7,30.18,NE,45,2.4,2.4,72,0.00,BKN,,0.00,WeatherDisplay:10.37,2013-08-17 14:25:00,
2013-08-17 10:30:00,69.1,59.7,30.18,NE,45,5.8,5.8,72,0.00,BKN,,0.00,WeatherDisplay:10.37,2013-08-17 14:30:00,
2013-08-17 10:35:00,69.6,60.2,30.18,ENE,68,2.4,2.4,72,0.00,BKN,,0.00,WeatherDisplay:10.37,2013-08-17 14:35:00,
2013-08-17 10:40:00,70.2,60.7,30.18,North,0,2.0,0.0,72,0.00,BKN,,0.00,WeatherDisplay:10.37,2013-08-17 14:40:00,
2013-08-17 10:45:00,70.5,61.1,30.18,NE,45,2.3,2.3,72,0.00,BKN,,0.00,WeatherDisplay:10.37,2013-08-17 14:45:00,
2013-08-17 10:50:00,71.4,61.9,30.18,East,90,0.0,0.0,72,0.00,BKN,,0.00,WeatherDisplay:10.37,2013-08-17 14:50:00,
2013-08-17 10:55:00,71.8,61.9,30.18,SW,225,1.2,0.0,71,0.00,BKN,,0.00,WeatherDisplay:10.37,2013-08-17 14:55:00,
2013-08-17 11:00:00,72.9,62.9,30.18,North,0,2.4,2.4,71,0.00,BKN,,0.00,WeatherDisplay:10.37,2013-08-17 15:00:00,
2013-08-17 11:05:00,73.2,63.2,30.18,NNE,22,2.2,0.0,71,0.00,BKN,,0.00,WeatherDisplay:10.37,2013-08-17 15:05:00,
2013-08-17 11:10:00,73.0,63.1,30.18,NW,315,3.6,3.6,71,0.00,BKN,,0.00,WeatherDisplay:10.37,2013-08-17 15:10:00,
2013-08-17 11:15:00,73.4,63.4,30.18,North,0,3.5,3.5,71,0.00,BKN,,0.00,WeatherDisplay:10.37,2013-08-17 15:15:00,
2013-08-17 11:20:00,73.6,63.6,30.18,NNE,22,2.6,2.6,71,0.00,BKN,,0.00,WeatherDisplay:10.37,2013-08-17 15:20:00,
2013-08-17 11:25:00,73.6,63.6,30.18,East,90,2.3,2.3,71,0.00,BKN,,0.00,WeatherDisplay:10.37,2013-08-17 15:25:00,
2013-08-17 11:30:00,74.5,64.5,30.18,West,270,2.6,2.6,71,0.00,BKN,,0.00,WeatherDisplay:10.37,2013-08-17 15:30:00,
2013-08-17 11:35:00,76.1,65.6,30.18,East,90,2.3,2.3,70,0.00,OVC,,0.00,WeatherDisplay:10.37,2013-08-17 15:35:00,
2013-08-17 11:40:00,76.8,66.3,30.18,East,90,2.3,0.0,70,0.00,OVC,,0.00,WeatherDisplay:10.37,2013-08-17 15:40:00,
2013-08-17 11:45:00,76.3,65.8,30.18,North,0,2.3,2.9,70,0.00,OVC,,0.00,WeatherDisplay:10.37,2013-08-17 15:45:00,
2013-08-17 11:50:00,76.5,65.9,30.18,North,0,2.3,2.3,70,0.00,OVC,,0.00,WeatherDisplay:10.37,2013-08-17 15:50:00,
2013-08-17 11:55:00,77.2,66.6,30.18,NW,315,3.5,3.5,70,0.00,OVC,,0.00,WeatherDisplay:10.37,2013-08-17 15:55:00,
2013-08-17 12:00:00,77.7,67.2,30.18,NNE,22,5.8,5.8,70,0.00,OVC,,0.00,WeatherDisplay:10.37,2013-08-17 16:00:00,
2013-08-17 12:05:00,79.0,68.4,30.15,NE,45,2.3,2.3,70,0.00,OVC,,0.00,WeatherDisplay:10.37,2013-08-17 16:05:00,
2013-08-17 12:10:00,79.7,69.0,30.15,East,90,2.9,2.9,70,0.00,OVC,,0.00,WeatherDisplay:10.37,2013-08-17 16:10:00,
2013-08-17 12:15:00,81.0,69.8,30.15,NW,315,4.6,4.6,69,0.00,OVC,,0.00,WeatherDisplay:10.37,2013-08-17 16:15:00,
2013-08-17 12:20:00,81.9,70.7,30.15,SSW,202,2.3,2.9,69,0.00,OVC,,0.00,WeatherDisplay:10.37,2013-08-17 16:20:00,
2013-08-17 12:25:00,82.8,71.5,30.15,NW,315,1.4,1.4,69,0.00,OVC,,0.00,WeatherDisplay:10.37,2013-08-17 16:25:00,
2013-08-17 12:30:00,82.9,71.7,30.15,SW,225,2.3,2.3,69,0.00,OVC,,0.00,WeatherDisplay:10.37,2013-08-17 16:30:00,
2013-08-17 12:35:00,84.0,72.8,30.15,NE,45,1.2,1.6,69,0.00,OVC,,0.00,WeatherDisplay:10.37,2013-08-17 16:35:00,
2013-08-17 12:40:00,84.0,72.8,30.15,SE,135,1.4,0.0,69,0.00,OVC,,0.00,WeatherDisplay:10.37,2013-08-17 16:40:00,
2013-08-17 12:45:00,84.6,72.8,30.15,South,180,1.2,1.2,68,0.00,OVC,,0.00,WeatherDisplay:10.37,2013-08-17 16:45:00,
2013-08-17 12:50:00,84.6,72.8,30.15,North,0,2.3,2.3,68,0.00,OVC,,0.00,WeatherDisplay:10.37,2013-08-17 16:50:00,
2013-08-17 12:55:00,84.9,73.2,30.15,East,90,2.3,2.3,68,0.00,OVC,,0.00,WeatherDisplay:10.37,2013-08-17 16:55:00,
2013-08-17 13:00:00,85.1,73.3,30.15,South,180,1.2,0.0,68,0.00,OVC,,0.00,WeatherDisplay:10.37,2013-08-17 17:00:00,
2013-08-17 13:05:00,85.1,73.3,30.15,NNE,22,2.3,2.3,68,0.00,OVC,,0.00,WeatherDisplay:10.37,2013-08-17 17:05:00,
2013-08-17 13:10:00,85.1,73.3,30.15,North,0,1.6,1.6,68,0.00,OVC,,0.00,WeatherDisplay:10.37,2013-08-17 17:10:00,
2013-08-17 13:15:00,86.2,74.4,30.15,South,180,0.0,0.0,68,0.00,OVC,,0.00,WeatherDisplay:10.37,2013-08-17 17:15:00,
2013-08-17 13:20:00,86.9,75.1,30.15,East,90,2.3,2.3,68,0.00,BKN,,0.00,WeatherDisplay:10.37,2013-08-17 17:20:00,
2013-08-17 13:25:00,86.0,74.2,30.15,East,90,2.3,2.4,68,0.00,BKN,,0.00,WeatherDisplay:10.37,2013-08-17 17:25:00,
2013-08-17 13:30:00,87.1,75.2,30.15,East,90,4.6,4.6,68,0.00,BKN,,0.00,WeatherDisplay:10.37,2013-08-17 17:30:00,
2013-08-17 13:35:00,85.6,73.9,30.12,NE,45,3.5,3.5,68,0.00,BKN,,0.00,WeatherDisplay:10.37,2013-08-17 17:35:00,
2013-08-17 13:40:00,86.2,74.4,30.12,East,90,1.4,1.4,68,0.00,BKN,,0.00,WeatherDisplay:10.37,2013-08-17 17:40:00,
2013-08-17 13:45:00,87.3,75.4,30.12,East,90,2.3,2.3,68,0.00,BKN,,0.00,WeatherDisplay:10.37,2013-08-17 17:45:00,
2013-08-17 13:50:00,87.8,75.9,30.12,NW,315,4.6,4.6,68,0.00,BKN,,0.00,WeatherDisplay:10.37,2013-08-17 17:50:00,
2013-08-17 13:55:00,87.6,75.7,30.12,NNE,22,3.5,3.5,68,0.00,BKN,,0.00,WeatherDisplay:10.37,2013-08-17 17:55:00,
2013-08-17 14:00:00,88.3,76.4,30.12,SE,135,1.2,0.0,68,0.00,BKN,,0.00,WeatherDisplay:10.37,2013-08-17 18:00:00,
2013-08-17 14:05:00,87.4,75.6,30.09,SE,135,2.3,0.0,68,0.00,-RA,,0.00,WeatherDisplay:10.37,2013-08-17 18:05:00,
2013-08-17 14:10:00,88.7,76.8,30.09,ENE,68,1.6,0.0,68,0.00,-RA,,0.00,WeatherDisplay:10.37,2013-08-17 18:10:00,
2013-08-17 14:15:00,87.4,75.6,30.09,East,90,3.5,3.5,68,0.00,-RA,,0.00,WeatherDisplay:10.37,2013-08-17 18:15:00,
2013-08-17 14:20:00,88.9,76.9,30.12,ENE,68,1.2,1.4,68,0.00,-DZ,,0.00,WeatherDisplay:10.37,2013-08-17 18:20:00,
2013-08-17 14:25:00,88.3,76.4,30.12,South,180,1.4,1.4,68,0.00,-DZ,,0.00,WeatherDisplay:10.37,2013-08-17 18:25:00,
2013-08-17 14:30:00,89.1,77.1,30.12,NNW,338,2.9,2.9,68,0.00,-DZ,,0.00,WeatherDisplay:10.37,2013-08-17 18:30:00,
2013-08-17 14:35:00,88.0,76.1,30.09,South,180,2.3,2.3,68,0.00,-DZ,,0.00,WeatherDisplay:10.37,2013-08-17 18:35:00,
2013-08-17 14:40:00,86.2,74.4,30.09,East,90,3.5,3.5,68,0.00,-DZ,,0.00,WeatherDisplay:10.37,2013-08-17 18:40:00,
2013-08-17 14:45:00,85.1,73.3,30.09,NE,45,2.3,2.3,68,0.00,-DZ,,0.00,WeatherDisplay:10.37,2013-08-17 18:45:00,
2013-08-17 14:50:00,86.2,74.4,30.12,East,90,2.4,2.4,68,0.00,-DZ,,0.00,WeatherDisplay:10.37,2013-08-17 18:50:00,
2013-08-17 14:55:00,84.6,72.8,30.12,NW,315,2.3,2.3,68,0.00,-DZ,,0.00,WeatherDisplay:10.37,2013-08-17 18:55:00,
2013-08-17 15:00:00,87.1,75.2,30.12,North,0,2.3,2.3,68,0.00,-DZ,,0.00,WeatherDisplay:10.37,2013-08-17 19:00:00,
2013-08-17 15:05:00,86.4,74.5,30.12,NE,45,8.1,8.1,68,0.00,FEW,,0.00,WeatherDisplay:10.37,2013-08-17 19:05:00,
2013-08-17 15:10:00,85.3,73.5,30.12,East,90,2.3,2.3,68,0.00,FEW,,0.00,WeatherDisplay:10.37,2013-08-17 19:10:00,
2013-08-17 15:15:00,87.6,75.7,30.12,SE,135,1.2,1.4,68,0.00,FEW,,0.00,WeatherDisplay:10.37,2013-08-17 19:15:00,
2013-08-17 15:20:00,88.7,76.8,30.12,North,0,4.0,4.0,68,0.00,SCT,,0.00,WeatherDisplay:10.37,2013-08-17 19:20:00,
2013-08-17 15:25:00,87.1,75.2,30.12,West,270,2.3,2.3,68,0.00,SCT,,0.00,WeatherDisplay:10.37,2013-08-17 19:25:00,
2013-08-17 15:30:00,86.2,74.4,30.12,East,90,4.6,4.6,68,0.00,SCT,,0.00,WeatherDisplay:10.37,2013-08-17 19:30:00,
2013-08-17 15:35:00,85.3,73.5,30.12,WNW,292,2.3,0.0,68,0.00,SCT,,0.00,WeatherDisplay:10.37,2013-08-17 19:35:00,
2013-08-17 15:40:00,84.9,73.2,30.12,East,90,2.3,2.3,68,0.00,SCT,,0.00,WeatherDisplay:10.37,2013-08-17 19:40:00,
2013-08-17 15:45:00,85.5,73.7,30.12,East,90,2.3,2.3,68,0.00,SCT,,0.00,WeatherDisplay:10.37,2013-08-17 19:45:00,
2013-08-17 15:50:00,84.2,72.5,30.12,NE,45,2.3,2.3,68,0.00,SCT,,0.00,WeatherDisplay:10.37,2013-08-17 19:50:00,
2013-08-17 15:55:00,83.7,72.4,30.12,North,0,1.4,0.0,69,0.00,SCT,,0.00,WeatherDisplay:10.37,2013-08-17 19:55:00,
2013-08-17 16:00:00,83.1,71.9,30.12,WNW,292,1.2,1.2,69,0.00,SCT,,0.00,WeatherDisplay:10.37,2013-08-17 20:00:00,
2013-08-17 16:05:00,83.5,72.2,30.12,West,270,0.0,0.0,69,0.00,SCT,,0.00,WeatherDisplay:10.37,2013-08-17 20:05:00,
2013-08-17 16:10:00,84.2,72.5,30.12,East,90,1.2,0.0,68,0.00,SCT,,0.00,WeatherDisplay:10.37,2013-08-17 20:10:00,
2013-08-17 16:15:00,84.4,72.7,30.12,East,90,2.3,2.3,68,0.00,SCT,,0.00,WeatherDisplay:10.37,2013-08-17 20:15:00,
2013-08-17 16:20:00,83.8,72.6,30.12,SE,135,2.2,2.2,69,0.00,BKN,,0.00,WeatherDisplay:10.37,2013-08-17 20:20:00,
2013-08-17 16:25:00,84.0,72.8,30.12,WNW,292,1.6,1.6,69,0.00,BKN,,0.00,WeatherDisplay:10.37,2013-08-17 20:25:00,
2013-08-17 16:30:00,84.9,73.2,30.12,East,90,2.0,2.0,68,0.00,BKN,,0.00,WeatherDisplay:10.37,2013-08-17 20:30:00,
2013-08-17 16:35:00,84.4,72.7,30.12,NNE,22,2.4,2.4,68,0.00,BKN,,0.00,WeatherDisplay:10.37,2013-08-17 20:35:00,
2013-08-17 16:40:00,84.6,72.8,30.12,SW,225,2.3,2.3,68,0.00,BKN,,0.00,WeatherDisplay:10.37,2013-08-17 20:40:00,
2013-08-17 16:45:00,85.1,73.3,30.12,East,90,1.4,1.4,68,0.00,BKN,,0.00,WeatherDisplay:10.37,2013-08-17 20:45:00,
2013-08-17 16:50:00,85.6,73.9,30.12,NE,45,4.6,4.6,68,0.00,BKN,,0.00,WeatherDisplay:10.37,2013-08-17 20:50:00,
2013-08-17 16:55:00,85.1,73.3,30.12,East,90,2.0,2.0,68,0.00,BKN,,0.00,WeatherDisplay:10.37,2013-08-17 20:55:00,
2013-08-17 17:00:00,83.5,72.2,30.12,East,90,1.4,0.0,69,0.00,BKN,,0.00,WeatherDisplay:10.37,2013-08-17 21:00:00,
2013-08-17 17:05:00,84.9,73.2,30.09,East,90,2.3,2.3,68,0.00,FEW,,0.00,WeatherDisplay:10.37,2013-08-17 21:05:00,
2013-08-17 17:10:00,86.2,74.4,30.09,SE,135,1.4,1.4,68,0.00,FEW,,0.00,WeatherDisplay:10.37,2013-08-17 21:10:00,
2013-08-17 17:15:00,85.3,73.5,30.09,NNW,338,1.6,0.0,68,0.00,FEW,,0.00,WeatherDisplay:10.37,2013-08-17 21:15:00,
2013-08-17 17:20:00,84.2,72.5,30.09,East,90,1.2,1.2,68,0.00,FEW,,0.00,WeatherDisplay:10.37,2013-08-17 21:20:00,
2013-08-17 17:25:00,82.9,71.7,30.09,SE,135,1.4,1.4,69,0.00,FEW,,0.00,WeatherDisplay:10.37,2013-08-17 21:25:00,
2013-08-17 17:30:00,81.7,70.5,30.09,SE,135,0.0,0.0,69,0.00,FEW,,0.00,WeatherDisplay:10.37,2013-08-17 21:30:00,
2013-08-17 17:35:00,80.8,69.7,30.09,West,270,0.0,0.0,69,0.00,FEW,,0.00,WeatherDisplay:10.37,2013-08-17 21:35:00,
2013-08-17 17:40:00,80.2,69.6,30.09,NE,45,1.4,0.0,70,0.00,FEW,,0.00,WeatherDisplay:10.37,2013-08-17 21:40:00,
2013-08-17 17:45:00,79.9,69.2,30.09,NE,45,1.2,1.2,70,0.00,FEW,,0.00,WeatherDisplay:10.37,2013-08-17 21:45:00,
2013-08-17 17:50:00,79.5,68.9,30.09,NE,45,0.0,0.0,70,0.00,FEW,,0.00,WeatherDisplay:10.37,2013-08-17 21:50:00,
2013-08-17 17:55:00,79.5,68.9,30.09,NW,315,0.0,0.0,70,0.00,FEW,,0.00,WeatherDisplay:10.37,2013-08-17 21:55:00,
2013-08-17 18:00:00,79.3,68.7,30.09,NE,45,0.0,0.0,70,0.00,FEW,,0.00,WeatherDisplay:10.37,2013-08-17 22:00:00,
2013-08-17 18:05:00,79.2,68.5,30.09,NE,45,0.0,0.0,70,0.00,BKN,,0.00,WeatherDisplay:10.37,2013-08-17 22:05:00,
2013-08-17 18:10:00,79.7,69.0,30.09,West,270,0.0,0.0,70,0.00,BKN,,0.00,WeatherDisplay:10.37,2013-08-17 22:10:00,
2013-08-17 18:15:00,80.2,69.6,30.09,West,270,0.0,0.0,70,0.00,BKN,,0.00,WeatherDisplay:10.37,2013-08-17 22:15:00,
2013-08-17 18:20:00,79.9,69.2,30.09,NW,315,0.0,0.0,70,0.00,BKN,,0.00,WeatherDisplay:10.37,2013-08-17 22:20:00,
2013-08-17 18:25:00,80.4,69.7,30.09,SW,225,0.0,0.0,70,0.00,BKN,,0.00,WeatherDisplay:10.37,2013-08-17 22:25:00,
2013-08-17 18:30:00,79.9,69.2,30.09,North,0,2.3,2.3,70,0.00,BKN,,0.00,WeatherDisplay:10.37,2013-08-17 22:30:00,
2013-08-17 18:35:00,79.5,68.9,30.09,East,90,1.2,0.0,70,0.00,BKN,,0.00,WeatherDisplay:10.37,2013-08-17 22:35:00,
2013-08-17 18:40:00,78.8,68.2,30.09,SE,135,1.2,0.0,70,0.00,BKN,,0.00,WeatherDisplay:10.37,2013-08-17 22:40:00,
2013-08-17 18:45:00,78.1,67.5,30.09,East,90,2.3,2.3,70,0.00,BKN,,0.00,WeatherDisplay:10.37,2013-08-17 22:45:00,
2013-08-17 18:48:00,68.5,22.0,30.12,ENE,62,0.0,1.0,17,0.00,CLR,CLR,0.00,WeatherDisplay:10.37,2013-08-17 22:48:00,
2013-08-17 18:50:00,77.4,66.8,30.09,East,90,0.0,0.0,70,0.00,BKN,,0.00,WeatherDisplay:10.37,2013-08-17 22:50:00,
2013-08-17 18:55:00,76.8,66.3,30.09,NE,45,1.2,1.2,70,0.00,BKN,,0.00,WeatherDisplay:10.37,2013-08-17 22:55:00,
2013-08-17 19:00:00,76.3,65.8,30.09,NNE,22,1.2,0.0,70,0.00,BKN,,0.00,WeatherDisplay:10.37,2013-08-17 23:00:00,
2013-08-17 19:03:00,68.0,21.5,30.12,NNE,29,1.0,2.0,17,0.00,CLR,CLR,0.00,WeatherDisplay:10.37,2013-08-17 23:03:00,
2013-08-17 19:05:00,75.9,65.4,30.09,NNE,22,0.0,0.0,70,0.00,BKN,,0.00,WeatherDisplay:10.37,2013-08-17 23:05:00,
2013-08-17 19:10:00,75.7,65.3,30.09,NNE,22,2.3,2.3,70,0.00,BKN,,0.00,WeatherDisplay:10.37,2013-08-17 23:10:00,
2013-08-17 19:15:00,75.4,64.9,30.09,North,0,1.4,0.0,70,0.00,BKN,,0.00,WeatherDisplay:10.37,2013-08-17 23:15:00,
2013-08-17 19:18:00,67.5,24.9,30.12,NE,36,0.0,2.0,20,0.00,CLR,CLR,0.00,WeatherDisplay:10.37,2013-08-17 23:18:00,
2013-08-17 19:20:00,75.4,64.9,30.09,NE,45,1.4,1.4,70,0.00,SCT,,0.00,WeatherDisplay:10.37,2013-08-17 23:20:00,
2013-08-17 19:25:00,75.0,65.0,30.09,NNE,22,2.0,0.0,71,0.00,SCT,,0.00,WeatherDisplay:10.37,2013-08-17 23:25:00,
2013-08-17 19:30:00,75.0,65.0,30.09,NNE,22,0.0,0.0,71,0.00,SCT,,0.00,WeatherDisplay:10.37,2013-08-17 23:30:00,
2013-08-17 19:33:00,67.1,26.9,30.12,NNE,18,1.0,2.0,22,0.00,CLR,CLR,0.00,WeatherDisplay:10.37,2013-08-17 23:33:00,
2013-08-17 19:35:00,74.7,64.6,30.09,NNE,22,0.0,0.0,71,0.00,SCT,,0.00,WeatherDisplay:10.37,2013-08-17 23:35:00,
2013-08-17 19:40:00,74.5,64.5,30.09,NNE,22,1.2,0.0,71,0.00,SCT,,0.00,WeatherDisplay:10.37,2013-08-17 23:40:00,
2013-08-17 19:45:00,74.3,64.3,30.09,NNE,22,0.0,0.0,71,0.00,SCT,,0.00,WeatherDisplay:10.37,2013-08-17 23:45:00,
2013-08-17 19:48:00,66.7,26.6,30.12,North,11,1.0,2.0,22,0.00,CLR,CLR,0.00,WeatherDisplay:10.37,2013-08-17 23:48:00,
2013-08-17 19:50:00,74.3,64.3,30.09,NNE,22,2.3,2.3,71,0.00,SCT,,0.00,WeatherDisplay:10.37,2013-08-17 23:50:00,
2013-08-17 19:55:00,74.3,64.3,30.09,NE,45,2.0,2.0,71,0.00,SCT,,0.00,WeatherDisplay:10.37,2013-08-17 23:55:00,
2013-08-17 20:00:00,74.3,64.3,30.09,North,0,1.2,0.0,71,0.00,SCT,,0.00,WeatherDisplay:10.37,2013-08-18 00:00:00,
2013-08-17 20:03:00,66.6,27.6,30.09,NNE,20,0.0,2.0,23,0.00,CLR,CLR,0.00,WeatherDisplay:10.37,2013-08-18 00:03:00,
2013-08-17 20:05:00,74.1,64.1,30.09,North,0,0.0,0.0,71,0.00,SCT,,0.00,WeatherDisplay:10.37,2013-08-18 00:05:00,
2013-08-17 20:10:00,73.9,63.9,30.09,North,0,0.0,0.0,71,0.00,SCT,,0.00,WeatherDisplay:10.37,2013-08-18 00:10:00,
2013-08-17 20:15:00,73.8,63.8,30.09,NNE,22,0.0,0.0,71,0.00,SCT,,0.00,WeatherDisplay:10.37,2013-08-18 00:15:00,
2013-08-17 20:18:00,66.0,27.1,30.09,NNE,20,1.0,2.0,23,0.00,CLR,CLR,0.00,WeatherDisplay:10.37,2013-08-18 00:18:00,
2013-08-17 20:20:00,73.6,63.6,30.12,NNE,22,1.2,1.2,71,0.00,-RA,,0.00,WeatherDisplay:10.37,2013-08-18 00:20:00,
2013-08-17 20:25:00,73.4,63.4,30.12,NE,45,2.2,0.0,71,0.00,-RA,,0.00,WeatherDisplay:10.37,2013-08-18 00:25:00,
2013-08-17 20:30:00,73.2,63.2,30.12,NNW,338,2.3,2.3,71,0.00,-RA,,0.00,WeatherDisplay:10.37,2013-08-18 00:30:00,
2013-08-17 20:33:00,65.7,27.9,30.12,NNE,31,1.0,2.0,24,0.00,CLR,CLR,0.00,WeatherDisplay:10.37,2013-08-18 00:33:00,
2013-08-17 20:35:00,73.0,63.1,30.12,East,90,1.2,1.2,71,0.00,-RA,,0.00,WeatherDisplay:10.37,2013-08-18 00:35:00,
2013-08-17 20:40:00,73.0,63.1,30.12,NE,45,0.0,0.0,71,0.00,-RA,,0.00,WeatherDisplay:10.37,2013-08-18 00:40:00,
2013-08-17 20:45:00,72.9,62.9,30.12,NE,45,1.2,0.0,71,0.00,-RA,,0.00,WeatherDisplay:10.37,2013-08-18 00:45:00,
2013-08-17 20:48:00,65.3,27.5,30.12,NNE,20,1.0,2.0,24,0.00,CLR,CLR,0.00,WeatherDisplay:10.37,2013-08-18 00:48:00,
2013-08-17 20:50:00,72.7,62.7,30.09,North,0,2.0,2.0,71,0.00,-RA,,0.00,WeatherDisplay:10.37,2013-08-18 00:50:00,
2013-08-17 20:55:00,72.5,62.6,30.09,NNE,22,1.6,1.6,71,0.00,-RA,,0.00,WeatherDisplay:10.37,2013-08-18 00:55:00,
2013-08-17 21:00:00,72.5,62.6,30.09,NNE,22,1.2,1.2,71,0.00,-RA,,0.00,WeatherDisplay:10.37,2013-08-18 01:00:00,
2013-08-17 21:03:00,64.9,28.2,30.12,NE,42,1.0,2.0,25,0.00,CLR,CLR,0.00,WeatherDisplay:10.37,2013-08-18 01:03:00,
2013-08-17 21:05:00,72.3,62.4,30.12,NNE,22,0.0,0.0,71,0.00,FEW,,0.00,WeatherDisplay:10.37,2013-08-18 01:05:00,
2013-08-17 21:10:00,72.1,62.2,30.12,North,0,2.3,2.3,71,0.00,FEW,,0.00,WeatherDisplay:10.37,2013-08-18 01:10:00,
2013-08-17 21:15:00,71.8,61.9,30.12,NNE,22,2.3,2.3,71,0.00,FEW,,0.00,WeatherDisplay:10.37,2013-08-18 01:15:00,
2013-08-17 21:18:00,64.6,27.9,30.12,NE,45,1.0,3.0,25,0.00,CLR,CLR,0.00,WeatherDisplay:10.37,2013-08-18 01:18:00,
2013-08-17 21:20:00,71.6,61.7,30.12,NNE,22,1.2,1.2,71,0.00,FEW,,0.00,WeatherDisplay:10.37,2013-08-18 01:20:00,
2013-08-17 21:25:00,71.4,61.9,30.12,NNE,22,1.2,1.2,72,0.00,FEW,,0.00,WeatherDisplay:10.37,2013-08-18 01:25:00,
2013-08-17 21:31:00,71.2,61.7,30.12,NNE,22,1.2,1.2,72,0.00,FEW,,0.00,WeatherDisplay:10.37,2013-08-18 01:31:00,
2013-08-17 21:33:00,64.2,28.6,30.12,NE,45,1.0,2.0,26,0.00,CLR,CLR,0.00,WeatherDisplay:10.37,2013-08-18 01:33:00,
2013-08-17 21:36:00,71.2,61.7,30.12,North,0,1.2,1.2,72,0.00,-RA,,0.00,WeatherDisplay:10.37,2013-08-18 01:36:00,
2013-08-17 21:41:00,71.2,61.7,30.12,NNW,338,1.2,1.2,72,0.00,-RA,,0.00,WeatherDisplay:10.37,2013-08-18 01:41:00,
2013-08-17 21:46:00,71.2,61.7,30.12,SSW,202,1.2,1.2,72,0.00,OVC,,0.00,WeatherDisplay:10.37,2013-08-18 01:46:00,
2013-08-17 21:48:00,64.0,29.4,30.12,NE,42,0.0,3.0,27,0.00,CLR,CLR,0.00,WeatherDisplay:10.37,2013-08-18 01:48:00,
2013-08-17 21:51:00,71.2,62.5,30.12,North,0,0.0,0.0,74,0.00,OVC,,0.00,WeatherDisplay:10.37,2013-08-18 01:51:00,
2013-08-17 21:57:00,71.1,62.4,30.12,North,0,1.2,0.0,74,0.00,OVC,,0.00,WeatherDisplay:10.37,2013-08-18 01:57:00,
2013-08-17 22:02:00,70.9,62.2,30.09,North,0,0.0,0.0,74,0.00,SCT,,0.00,WeatherDisplay:10.37,2013-08-18 02:02:00,
2013-08-17 22:03:00,63.9,30.1,30.12,NE,40,0.0,2.0,28,0.00,CLR,CLR,0.00,WeatherDisplay:10.37,2013-08-18 02:03:00,
2013-08-17 22:07:00,70.7,62.0,30.09,North,0,1.2,0.0,74,0.00,SCT,,0.00,WeatherDisplay:10.37,2013-08-18 02:07:00,
2013-08-17 22:12:00,70.5,61.8,30.09,East,90,2.3,2.3,74,0.00,SCT,,0.00,WeatherDisplay:10.37,2013-08-18 02:12:00,
2013-08-17 22:17:00,70.3,61.7,30.12,NE,45,1.2,1.2,74,0.00,SCT,,0.00,WeatherDisplay:10.37,2013-08-18 02:17:00,
2013-08-17 22:18:00,63.1,29.5,30.12,NE,45,0.0,2.0,28,0.00,CLR,CLR,0.00,WeatherDisplay:10.37,2013-08-18 02:18:00,
2013-08-17 22:22:00,70.2,61.5,30.12,North,0,1.2,1.2,74,0.00,SCT,,0.00,WeatherDisplay:10.37,2013-08-18 02:22:00,
2013-08-17 22:27:00,70.0,61.3,30.12,NE,45,1.2,1.2,74,0.00,SCT,,0.00,WeatherDisplay:10.37,2013-08-18 02:27:00,
2013-08-17 22:32:00,69.8,61.1,30.09,North,0,1.4,1.4,74,0.00,SCT,,0.00,WeatherDisplay:10.37,2013-08-18 02:32:00,
2013-08-17 22:33:00,63.0,31.8,30.12,NNE,20,0.0,2.0,31,0.00,CLR,CLR,0.00,WeatherDisplay:10.37,2013-08-18 02:33:00,
2013-08-17 22:38:00,69.6,61.3,30.09,North,0,2.3,2.3,75,0.00,SCT,,0.00,WeatherDisplay:10.37,2013-08-18 02:38:00,
2013-08-17 22:43:00,69.6,61.3,30.09,NNE,22,1.2,1.6,75,0.00,SCT,,0.00,WeatherDisplay:10.37,2013-08-18 02:43:00,
2013-08-17 22:48:00,69.6,61.3,30.09,NE,45,1.2,1.2,75,0.00,SCT,,0.00,WeatherDisplay:10.37,2013-08-18 02:48:00,
2013-08-17 22:53:00,69.6,61.3,30.09,NNE,22,2.3,2.3,75,0.00,SCT,,0.00,WeatherDisplay:10.37,2013-08-18 02:53:00,
2013-08-17 22:58:00,69.6,61.3,30.09,NNE,22,2.3,2.3,75,0.00,SCT,,0.00,WeatherDisplay:10.37,2013-08-18 02:58:00,
2013-08-17 23:03:00,69.4,61.2,30.09,North,0,2.3,2.3,75,0.00,BKN,,0.00,WeatherDisplay:10.37,2013-08-18 03:03:00,
2013-08-17 23:08:00,69.4,61.2,30.09,NNE,22,2.3,2.3,75,0.00,BKN,,0.00,WeatherDisplay:10.37,2013-08-18 03:08:00,
2013-08-17 23:13:00,69.3,61.0,30.09,NE,45,1.6,1.6,75,0.00,BKN,,0.00,WeatherDisplay:10.37,2013-08-18 03:13:00,
2013-08-17 23:18:00,69.3,61.0,30.12,NE,45,2.3,2.3,75,0.00,BKN,,0.00,WeatherDisplay:10.37,2013-08-18 03:18:00,
2013-08-17 23:24:00,69.1,60.8,30.12,North,0,2.2,2.2,75,0.00,BKN,,0.00,WeatherDisplay:10.37,2013-08-18 03:24:00,
2013-08-17 23:29:00,69.1,60.8,30.12,NE,45,2.3,2.3,75,0.00,BKN,,0.00,WeatherDisplay:10.37,2013-08-18 03:29:00,
2013-08-17 23:33:00,63.0,34.1,30.09,NNE,29,0.0,2.0,34,0.00,CLR,CLR,0.00,WeatherDisplay:10.37,2013-08-18 03:33:00,
2013-08-17 23:34:00,69.1,60.8,30.12,East,90,2.4,2.4,75,0.00,BKN,,0.00,WeatherDisplay:10.37,2013-08-18 03:34:00,
2013-08-17 23:48:00,62.6,33.8,30.09,NE,34,1.0,2.0,34,0.00,CLR,CLR,0.00,WeatherDisplay:10.37,2013-08-18 03:48:00,